sensor_id;sensor_type;location;lat;lon;timestamp;P1;durP1;ratioP1;P2;durP2;ratioP2
21202;SDS011;10759;51.982;9.232;2023-08-24T00:01:37;8.75;;;8.20;;
21202;SDS011;10759;51.982;9.232;2023-08-24T00:04:07;9.02;;;8.25;;
21202;SDS011;10759;51.982;9.232;2023-08-24T00:06:35;13.63;;;8.95;;
21202;SDS011;10759;51.982;9.232;2023-08-24T00:09:04;10.27;;;9.30;;
21202;SDS011;10759;51.982;9.232;2023-08-24T00:11:33;9.95;;;8.93;;
21202;SDS011;10759;51.982;9.232;2023-08-24T00:14:01;8.80;;;8.15;;
21202;SDS011;10759;51.982;9.232;2023-08-24T00:16:29;9.88;;;9.27;;
21202;SDS011;10759;51.982;9.232;2023-08-24T00:18:58;10.15;;;9.45;;
21202;SDS011;10759;51.982;9.232;2023-08-24T00:21:28;10.35;;;9.25;;
21202;SDS011;10759;51.982;9.232;2023-08-24T00:23:55;9.13;;;8.63;;
21202;SDS011;10759;51.982;9.232;2023-08-24T00:26:24;9.35;;;8.75;;
21202;SDS011;10759;51.982;9.232;2023-08-24T00:28:52;9.60;;;8.90;;
21202;SDS011;10759;51.982;9.232;2023-08-24T00:31:20;10.20;;;9.40;;
21202;SDS011;10759;51.982;9.232;2023-08-24T00:33:48;10.57;;;9.82;;
21202;SDS011;10759;51.982;9.232;2023-08-24T00:36:17;11.65;;;10.75;;
21202;SDS011;10759;51.982;9.232;2023-08-24T00:38:47;10.65;;;9.75;;
21202;SDS011;10759;51.982;9.232;2023-08-24T00:41:18;9.80;;;9.20;;
21202;SDS011;10759;51.982;9.232;2023-08-24T00:43:47;10.68;;;9.77;;
21202;SDS011;10759;51.982;9.232;2023-08-24T00:46:17;10.70;;;9.77;;
21202;SDS011;10759;51.982;9.232;2023-08-24T00:48:46;10.73;;;9.73;;
21202;SDS011;10759;51.982;9.232;2023-08-24T00:51:15;10.23;;;9.60;;
21202;SDS011;10759;51.982;9.232;2023-08-24T00:53:44;10.27;;;9.60;;
21202;SDS011;10759;51.982;9.232;2023-08-24T00:56:14;9.43;;;8.82;;
21202;SDS011;10759;51.982;9.232;2023-08-24T00:58:43;11.35;;;10.48;;
21202;SDS011;10759;51.982;9.232;2023-08-24T01:01:14;10.68;;;9.98;;
21202;SDS011;10759;51.982;9.232;2023-08-24T01:03:43;12.10;;;11.18;;
21202;SDS011;10759;51.982;9.232;2023-08-24T01:06:11;11.80;;;10.98;;
21202;SDS011;10759;51.982;9.232;2023-08-24T01:08:39;12.32;;;11.43;;
21202;SDS011;10759;51.982;9.232;2023-08-24T01:11:11;12.40;;;11.45;;
21202;SDS011;10759;51.982;9.232;2023-08-24T01:13:50;11.80;;;11.00;;
21202;SDS011;10759;51.982;9.232;2023-08-24T01:16:25;12.48;;;11.57;;
21202;SDS011;10759;51.982;9.232;2023-08-24T01:18:56;13.48;;;12.32;;
21202;SDS011;10759;51.982;9.232;2023-08-24T01:21:25;11.88;;;10.88;;
21202;SDS011;10759;51.982;9.232;2023-08-24T01:23:57;11.88;;;10.90;;
21202;SDS011;10759;51.982;9.232;2023-08-24T01:26:34;12.38;;;11.55;;
21202;SDS011;10759;51.982;9.232;2023-08-24T01:29:03;11.73;;;10.45;;
21202;SDS011;10759;51.982;9.232;2023-08-24T01:31:32;11.25;;;10.43;;
21202;SDS011;10759;51.982;9.232;2023-08-24T01:34:01;10.77;;;9.95;;
21202;SDS011;10759;51.982;9.232;2023-08-24T01:36:30;11.15;;;10.27;;
21202;SDS011;10759;51.982;9.232;2023-08-24T01:38:59;10.40;;;9.80;;
21202;SDS011;10759;51.982;9.232;2023-08-24T01:41:36;11.73;;;10.55;;
21202;SDS011;10759;51.982;9.232;2023-08-24T01:44:05;11.38;;;10.63;;
21202;SDS011;10759;51.982;9.232;2023-08-24T01:46:36;10.68;;;10.07;;
21202;SDS011;10759;51.982;9.232;2023-08-24T01:49:07;10.60;;;9.88;;
21202;SDS011;10759;51.982;9.232;2023-08-24T01:51:37;12.05;;;11.35;;
21202;SDS011;10759;51.982;9.232;2023-08-24T01:54:04;12.38;;;11.00;;
21202;SDS011;10759;51.982;9.232;2023-08-24T01:56:33;11.70;;;10.80;;
21202;SDS011;10759;51.982;9.232;2023-08-24T01:59:02;11.50;;;10.52;;
21202;SDS011;10759;51.982;9.232;2023-08-24T02:01:31;11.13;;;10.23;;
21202;SDS011;10759;51.982;9.232;2023-08-24T02:03:59;11.65;;;10.73;;
21202;SDS011;10759;51.982;9.232;2023-08-24T02:06:27;12.75;;;11.70;;
21202;SDS011;10759;51.982;9.232;2023-08-24T02:08:55;14.20;;;12.88;;
21202;SDS011;10759;51.982;9.232;2023-08-24T02:11:23;14.30;;;13.25;;
21202;SDS011;10759;51.982;9.232;2023-08-24T02:13:51;14.43;;;13.07;;
21202;SDS011;10759;51.982;9.232;2023-08-24T02:16:21;13.20;;;12.40;;
21202;SDS011;10759;51.982;9.232;2023-08-24T02:18:50;13.90;;;13.00;;
21202;SDS011;10759;51.982;9.232;2023-08-24T02:21:18;15.38;;;14.27;;
21202;SDS011;10759;51.982;9.232;2023-08-24T02:23:46;15.30;;;14.25;;
21202;SDS011;10759;51.982;9.232;2023-08-24T02:26:16;15.48;;;14.48;;
21202;SDS011;10759;51.982;9.232;2023-08-24T02:28:44;16.00;;;14.50;;
21202;SDS011;10759;51.982;9.232;2023-08-24T02:31:12;14.57;;;13.63;;
21202;SDS011;10759;51.982;9.232;2023-08-24T02:33:42;14.82;;;13.93;;
21202;SDS011;10759;51.982;9.232;2023-08-24T02:36:10;13.40;;;12.57;;
21202;SDS011;10759;51.982;9.232;2023-08-24T02:38:38;13.52;;;12.60;;
21202;SDS011;10759;51.982;9.232;2023-08-24T02:41:06;15.20;;;14.00;;
21202;SDS011;10759;51.982;9.232;2023-08-24T02:43:37;14.63;;;13.35;;
21202;SDS011;10759;51.982;9.232;2023-08-24T02:46:07;14.63;;;13.43;;
21202;SDS011;10759;51.982;9.232;2023-08-24T02:48:36;14.32;;;13.40;;
21202;SDS011;10759;51.982;9.232;2023-08-24T02:51:07;14.00;;;13.10;;
21202;SDS011;10759;51.982;9.232;2023-08-24T02:53:36;15.07;;;13.93;;
21202;SDS011;10759;51.982;9.232;2023-08-24T02:56:05;15.55;;;14.35;;
21202;SDS011;10759;51.982;9.232;2023-08-24T02:58:34;14.85;;;13.73;;
21202;SDS011;10759;51.982;9.232;2023-08-24T03:01:04;14.95;;;13.88;;
21202;SDS011;10759;51.982;9.232;2023-08-24T03:03:33;16.77;;;15.48;;
21202;SDS011;10759;51.982;9.232;2023-08-24T03:06:03;15.30;;;14.20;;
21202;SDS011;10759;51.982;9.232;2023-08-24T03:08:34;17.00;;;15.55;;
21202;SDS011;10759;51.982;9.232;2023-08-24T03:13:31;15.80;;;14.80;;
21202;SDS011;10759;51.982;9.232;2023-08-24T03:16:02;15.32;;;14.23;;
21202;SDS011;10759;51.982;9.232;2023-08-24T03:18:32;15.80;;;14.68;;
21202;SDS011;10759;51.982;9.232;2023-08-24T03:21:02;15.60;;;14.52;;
21202;SDS011;10759;51.982;9.232;2023-08-24T03:23:32;14.93;;;13.82;;
21202;SDS011;10759;51.982;9.232;2023-08-24T03:26:02;14.55;;;13.23;;
21202;SDS011;10759;51.982;9.232;2023-08-24T03:28:31;14.07;;;13.07;;
21202;SDS011;10759;51.982;9.232;2023-08-24T03:31:00;14.45;;;13.25;;
21202;SDS011;10759;51.982;9.232;2023-08-24T03:33:28;13.50;;;12.50;;
21202;SDS011;10759;51.982;9.232;2023-08-24T03:35:57;16.08;;;15.07;;
21202;SDS011;10759;51.982;9.232;2023-08-24T03:38:25;17.27;;;15.98;;
21202;SDS011;10759;51.982;9.232;2023-08-24T03:41:00;17.13;;;15.68;;
21202;SDS011;10759;51.982;9.232;2023-08-24T03:43:30;17.67;;;16.02;;
21202;SDS011;10759;51.982;9.232;2023-08-24T03:45:59;18.08;;;16.77;;
21202;SDS011;10759;51.982;9.232;2023-08-24T03:48:28;19.40;;;17.90;;
21202;SDS011;10759;51.982;9.232;2023-08-24T03:50:56;20.70;;;19.20;;
21202;SDS011;10759;51.982;9.232;2023-08-24T03:53:24;20.85;;;19.38;;
21202;SDS011;10759;51.982;9.232;2023-08-24T03:55:53;19.77;;;18.38;;
21202;SDS011;10759;51.982;9.232;2023-08-24T03:58:23;18.98;;;17.60;;
21202;SDS011;10759;51.982;9.232;2023-08-24T04:00:51;18.08;;;16.75;;
21202;SDS011;10759;51.982;9.232;2023-08-24T04:03:21;17.88;;;16.60;;
21202;SDS011;10759;51.982;9.232;2023-08-24T04:05:49;17.17;;;16.08;;
21202;SDS011;10759;51.982;9.232;2023-08-24T04:08:17;17.38;;;16.13;;
21202;SDS011;10759;51.982;9.232;2023-08-24T04:10:48;19.27;;;17.63;;
21202;SDS011;10759;51.982;9.232;2023-08-24T04:13:16;20.13;;;18.75;;
21202;SDS011;10759;51.982;9.232;2023-08-24T04:15:46;21.80;;;19.70;;
21202;SDS011;10759;51.982;9.232;2023-08-24T04:18:16;22.08;;;20.23;;
21202;SDS011;10759;51.982;9.232;2023-08-24T04:20:44;20.33;;;19.02;;
21202;SDS011;10759;51.982;9.232;2023-08-24T04:23:13;21.65;;;20.05;;
21202;SDS011;10759;51.982;9.232;2023-08-24T04:25:42;19.40;;;18.03;;
21202;SDS011;10759;51.982;9.232;2023-08-24T04:28:10;19.70;;;18.30;;
21202;SDS011;10759;51.982;9.232;2023-08-24T04:30:39;19.42;;;18.13;;
21202;SDS011;10759;51.982;9.232;2023-08-24T04:33:08;21.08;;;19.17;;
21202;SDS011;10759;51.982;9.232;2023-08-24T04:35:36;19.63;;;18.30;;
21202;SDS011;10759;51.982;9.232;2023-08-24T04:38:05;21.60;;;19.90;;
21202;SDS011;10759;51.982;9.232;2023-08-24T04:40:44;20.23;;;18.77;;
21202;SDS011;10759;51.982;9.232;2023-08-24T04:43:16;20.90;;;19.02;;
21202;SDS011;10759;51.982;9.232;2023-08-24T04:45:45;18.85;;;17.58;;
21202;SDS011;10759;51.982;9.232;2023-08-24T04:48:16;20.48;;;19.08;;
21202;SDS011;10759;51.982;9.232;2023-08-24T04:53:13;18.65;;;17.35;;
21202;SDS011;10759;51.982;9.232;2023-08-24T04:55:43;20.20;;;18.77;;
21202;SDS011;10759;51.982;9.232;2023-08-24T04:58:12;17.20;;;15.85;;
21202;SDS011;10759;51.982;9.232;2023-08-24T05:00:41;19.27;;;18.10;;
21202;SDS011;10759;51.982;9.232;2023-08-24T05:03:09;19.13;;;17.63;;
21202;SDS011;10759;51.982;9.232;2023-08-24T05:05:39;18.27;;;16.83;;
21202;SDS011;10759;51.982;9.232;2023-08-24T05:08:07;20.13;;;18.43;;
21202;SDS011;10759;51.982;9.232;2023-08-24T05:10:39;20.30;;;18.60;;
21202;SDS011;10759;51.982;9.232;2023-08-24T05:13:08;19.20;;;17.60;;
21202;SDS011;10759;51.982;9.232;2023-08-24T05:15:36;19.10;;;17.80;;
21202;SDS011;10759;51.982;9.232;2023-08-24T05:18:04;18.40;;;17.20;;
21202;SDS011;10759;51.982;9.232;2023-08-24T05:20:32;20.38;;;18.90;;
21202;SDS011;10759;51.982;9.232;2023-08-24T05:23:02;19.20;;;17.90;;
21202;SDS011;10759;51.982;9.232;2023-08-24T05:25:30;20.00;;;18.23;;
21202;SDS011;10759;51.982;9.232;2023-08-24T05:28:00;19.10;;;17.60;;
21202;SDS011;10759;51.982;9.232;2023-08-24T05:30:29;18.90;;;17.58;;
21202;SDS011;10759;51.982;9.232;2023-08-24T05:32:58;18.67;;;16.95;;
21202;SDS011;10759;51.982;9.232;2023-08-24T05:35:26;19.77;;;18.52;;
21202;SDS011;10759;51.982;9.232;2023-08-24T05:37:54;19.42;;;17.92;;
21202;SDS011;10759;51.982;9.232;2023-08-24T05:40:24;20.90;;;19.50;;
21202;SDS011;10759;51.982;9.232;2023-08-24T05:42:52;21.97;;;19.83;;
21202;SDS011;10759;51.982;9.232;2023-08-24T05:45:20;22.83;;;21.20;;
21202;SDS011;10759;51.982;9.232;2023-08-24T05:47:52;21.80;;;20.30;;
21202;SDS011;10759;51.982;9.232;2023-08-24T05:50:21;21.98;;;20.15;;
21202;SDS011;10759;51.982;9.232;2023-08-24T05:52:49;22.65;;;21.15;;
21202;SDS011;10759;51.982;9.232;2023-08-24T05:55:17;23.25;;;21.55;;
21202;SDS011;10759;51.982;9.232;2023-08-24T05:57:46;24.40;;;22.42;;
21202;SDS011;10759;51.982;9.232;2023-08-24T06:00:15;25.42;;;23.58;;
21202;SDS011;10759;51.982;9.232;2023-08-24T06:02:43;28.05;;;26.05;;
21202;SDS011;10759;51.982;9.232;2023-08-24T06:05:12;30.02;;;27.55;;
21202;SDS011;10759;51.982;9.232;2023-08-24T06:07:40;34.47;;;31.67;;
21202;SDS011;10759;51.982;9.232;2023-08-24T06:10:08;33.13;;;30.33;;
21202;SDS011;10759;51.982;9.232;2023-08-24T06:12:37;29.77;;;27.77;;
21202;SDS011;10759;51.982;9.232;2023-08-24T06:15:08;30.40;;;28.30;;
21202;SDS011;10759;51.982;9.232;2023-08-24T06:17:40;32.67;;;30.13;;
21202;SDS011;10759;51.982;9.232;2023-08-24T06:20:08;32.20;;;29.88;;
21202;SDS011;10759;51.982;9.232;2023-08-24T06:22:37;33.33;;;30.55;;
21202;SDS011;10759;51.982;9.232;2023-08-24T06:25:06;34.40;;;31.48;;
21202;SDS011;10759;51.982;9.232;2023-08-24T06:27:35;34.42;;;31.63;;
21202;SDS011;10759;51.982;9.232;2023-08-24T06:30:04;32.70;;;30.23;;
21202;SDS011;10759;51.982;9.232;2023-08-24T06:32:34;29.27;;;27.27;;
21202;SDS011;10759;51.982;9.232;2023-08-24T06:35:04;28.13;;;25.83;;
21202;SDS011;10759;51.982;9.232;2023-08-24T06:37:33;27.83;;;25.93;;
21202;SDS011;10759;51.982;9.232;2023-08-24T06:40:01;25.80;;;24.10;;
21202;SDS011;10759;51.982;9.232;2023-08-24T06:42:31;26.13;;;24.15;;
21202;SDS011;10759;51.982;9.232;2023-08-24T06:45:00;25.35;;;23.67;;
21202;SDS011;10759;51.982;9.232;2023-08-24T06:47:28;26.38;;;24.35;;
21202;SDS011;10759;51.982;9.232;2023-08-24T06:49:57;27.90;;;25.92;;
21202;SDS011;10759;51.982;9.232;2023-08-24T06:52:26;25.90;;;23.40;;
21202;SDS011;10759;51.982;9.232;2023-08-24T06:54:54;24.65;;;23.05;;
21202;SDS011;10759;51.982;9.232;2023-08-24T06:57:22;27.40;;;25.30;;
21202;SDS011;10759;51.982;9.232;2023-08-24T06:59:50;26.05;;;24.10;;
21202;SDS011;10759;51.982;9.232;2023-08-24T07:02:19;26.80;;;24.90;;
21202;SDS011;10759;51.982;9.232;2023-08-24T07:04:47;28.20;;;25.92;;
21202;SDS011;10759;51.982;9.232;2023-08-24T07:07:18;26.20;;;24.17;;
21202;SDS011;10759;51.982;9.232;2023-08-24T07:09:46;28.83;;;26.63;;
21202;SDS011;10759;51.982;9.232;2023-08-24T07:12:14;28.05;;;26.25;;
21202;SDS011;10759;51.982;9.232;2023-08-24T07:14:42;28.15;;;26.08;;
21202;SDS011;10759;51.982;9.232;2023-08-24T07:17:10;27.42;;;25.48;;
21202;SDS011;10759;51.982;9.232;2023-08-24T07:19:39;26.92;;;24.77;;
21202;SDS011;10759;51.982;9.232;2023-08-24T07:22:07;26.90;;;25.10;;
21202;SDS011;10759;51.982;9.232;2023-08-24T07:24:37;29.50;;;27.42;;
21202;SDS011;10759;51.982;9.232;2023-08-24T07:27:09;30.05;;;27.98;;
21202;SDS011;10759;51.982;9.232;2023-08-24T07:29:37;31.25;;;28.75;;
21202;SDS011;10759;51.982;9.232;2023-08-24T07:32:05;29.90;;;27.83;;
21202;SDS011;10759;51.982;9.232;2023-08-24T07:34:34;30.80;;;28.52;;
21202;SDS011;10759;51.982;9.232;2023-08-24T07:37:02;33.55;;;30.77;;
21202;SDS011;10759;51.982;9.232;2023-08-24T07:39:30;33.38;;;30.98;;
21202;SDS011;10759;51.982;9.232;2023-08-24T07:42:00;32.72;;;30.10;;
21202;SDS011;10759;51.982;9.232;2023-08-24T07:44:29;32.03;;;29.85;;
21202;SDS011;10759;51.982;9.232;2023-08-24T07:46:57;28.15;;;26.05;;
21202;SDS011;10759;51.982;9.232;2023-08-24T07:49:25;28.83;;;26.75;;
21202;SDS011;10759;51.982;9.232;2023-08-24T07:51:54;31.15;;;28.70;;
21202;SDS011;10759;51.982;9.232;2023-08-24T07:54:24;32.05;;;29.85;;
21202;SDS011;10759;51.982;9.232;2023-08-24T07:56:52;28.15;;;26.35;;
21202;SDS011;10759;51.982;9.232;2023-08-24T07:59:22;28.42;;;26.38;;
21202;SDS011;10759;51.982;9.232;2023-08-24T08:01:52;25.65;;;23.98;;
21202;SDS011;10759;51.982;9.232;2023-08-24T08:04:20;26.23;;;24.23;;
21202;SDS011;10759;51.982;9.232;2023-08-24T08:06:48;25.63;;;23.75;;
21202;SDS011;10759;51.982;9.232;2023-08-24T08:09:16;29.45;;;27.27;;
21202;SDS011;10759;51.982;9.232;2023-08-24T08:11:44;33.08;;;30.70;;
21202;SDS011;10759;51.982;9.232;2023-08-24T08:14:12;30.88;;;28.58;;
21202;SDS011;10759;51.982;9.232;2023-08-24T08:16:42;31.75;;;29.27;;
21202;SDS011;10759;51.982;9.232;2023-08-24T08:19:10;29.00;;;27.00;;
21202;SDS011;10759;51.982;9.232;2023-08-24T08:21:38;21.02;;;19.73;;
21202;SDS011;10759;51.982;9.232;2023-08-24T08:24:06;23.20;;;21.70;;
21202;SDS011;10759;51.982;9.232;2023-08-24T08:26:34;22.77;;;21.15;;
21202;SDS011;10759;51.982;9.232;2023-08-24T08:29:02;21.83;;;20.33;;
21202;SDS011;10759;51.982;9.232;2023-08-24T08:31:31;25.52;;;23.50;;
21202;SDS011;10759;51.982;9.232;2023-08-24T08:34:01;19.45;;;17.90;;
21202;SDS011;10759;51.982;9.232;2023-08-24T08:38:58;20.38;;;18.98;;
21202;SDS011;10759;51.982;9.232;2023-08-24T08:41:27;18.05;;;16.85;;
21202;SDS011;10759;51.982;9.232;2023-08-24T08:43:58;19.20;;;18.00;;
21202;SDS011;10759;51.982;9.232;2023-08-24T08:46:27;19.45;;;17.95;;
21202;SDS011;10759;51.982;9.232;2023-08-24T08:48:55;18.65;;;17.25;;
21202;SDS011;10759;51.982;9.232;2023-08-24T08:51:26;16.48;;;15.35;;
21202;SDS011;10759;51.982;9.232;2023-08-24T08:53:57;18.38;;;16.95;;
21202;SDS011;10759;51.982;9.232;2023-08-24T08:56:26;17.10;;;15.80;;
21202;SDS011;10759;51.982;9.232;2023-08-24T08:58:55;16.83;;;15.57;;
21202;SDS011;10759;51.982;9.232;2023-08-24T09:01:24;17.43;;;16.23;;
21202;SDS011;10759;51.982;9.232;2023-08-24T09:03:53;17.48;;;16.27;;
21202;SDS011;10759;51.982;9.232;2023-08-24T09:06:22;17.20;;;15.70;;
21202;SDS011;10759;51.982;9.232;2023-08-24T09:08:51;15.85;;;14.45;;
21202;SDS011;10759;51.982;9.232;2023-08-24T09:11:20;15.35;;;14.35;;
21202;SDS011;10759;51.982;9.232;2023-08-24T09:13:57;14.75;;;13.40;;
21202;SDS011;10759;51.982;9.232;2023-08-24T09:16:28;14.43;;;13.32;;
21202;SDS011;10759;51.982;9.232;2023-08-24T09:19:05;15.40;;;14.30;;
21202;SDS011;10759;51.982;9.232;2023-08-24T09:21:36;14.20;;;13.20;;
21202;SDS011;10759;51.982;9.232;2023-08-24T09:24:06;13.07;;;12.27;;
21202;SDS011;10759;51.982;9.232;2023-08-24T09:26:38;13.10;;;12.07;;
21202;SDS011;10759;51.982;9.232;2023-08-24T09:29:12;13.93;;;12.82;;
21202;SDS011;10759;51.982;9.232;2023-08-24T09:31:41;13.88;;;12.43;;
21202;SDS011;10759;51.982;9.232;2023-08-24T09:34:11;14.40;;;13.13;;
21202;SDS011;10759;51.982;9.232;2023-08-24T09:36:39;13.35;;;12.18;;
21202;SDS011;10759;51.982;9.232;2023-08-24T09:39:12;13.05;;;11.80;;
21202;SDS011;10759;51.982;9.232;2023-08-24T09:41:46;13.73;;;12.60;;
21202;SDS011;10759;51.982;9.232;2023-08-24T09:44:16;12.23;;;11.02;;
21202;SDS011;10759;51.982;9.232;2023-08-24T09:46:47;11.73;;;11.00;;
21202;SDS011;10759;51.982;9.232;2023-08-24T09:49:17;12.30;;;11.30;;
21202;SDS011;10759;51.982;9.232;2023-08-24T09:51:55;12.70;;;11.70;;
21202;SDS011;10759;51.982;9.232;2023-08-24T09:54:27;12.68;;;11.32;;
21202;SDS011;10759;51.982;9.232;2023-08-24T09:56:58;13.23;;;11.77;;
21202;SDS011;10759;51.982;9.232;2023-08-24T09:59:29;10.60;;;9.70;;
21202;SDS011;10759;51.982;9.232;2023-08-24T10:02:00;11.85;;;10.95;;
21202;SDS011;10759;51.982;9.232;2023-08-24T10:04:32;12.50;;;11.35;;
21202;SDS011;10759;51.982;9.232;2023-08-24T10:07:03;12.00;;;11.00;;
21202;SDS011;10759;51.982;9.232;2023-08-24T10:09:37;14.98;;;13.82;;
21202;SDS011;10759;51.982;9.232;2023-08-24T10:12:11;14.38;;;13.13;;
21202;SDS011;10759;51.982;9.232;2023-08-24T10:14:44;13.80;;;12.80;;
21202;SDS011;10759;51.982;9.232;2023-08-24T10:23:52;12.73;;;11.70;;
21202;SDS011;10759;51.982;9.232;2023-08-24T10:26:23;13.75;;;12.70;;
21202;SDS011;10759;51.982;9.232;2023-08-24T10:28:52;14.10;;;12.93;;
21202;SDS011;10759;51.982;9.232;2023-08-24T10:31:21;13.68;;;12.35;;
21202;SDS011;10759;51.982;9.232;2023-08-24T10:33:54;12.10;;;11.10;;
21202;SDS011;10759;51.982;9.232;2023-08-24T10:36:24;11.23;;;10.30;;
21202;SDS011;10759;51.982;9.232;2023-08-24T10:38:55;11.30;;;10.15;;
21202;SDS011;10759;51.982;9.232;2023-08-24T10:41:27;10.63;;;9.90;;
21202;SDS011;10759;51.982;9.232;2023-08-24T10:44:03;10.68;;;9.77;;
21202;SDS011;10759;51.982;9.232;2023-08-24T10:46:34;9.80;;;8.95;;
21202;SDS011;10759;51.982;9.232;2023-08-24T10:49:04;7.88;;;7.28;;
21202;SDS011;10759;51.982;9.232;2023-08-24T10:51:32;8.40;;;7.60;;
21202;SDS011;10759;51.982;9.232;2023-08-24T10:54:10;7.32;;;6.63;;
21202;SDS011;10759;51.982;9.232;2023-08-24T10:56:40;6.20;;;5.63;;
21202;SDS011;10759;51.982;9.232;2023-08-24T10:59:20;5.85;;;5.35;;
21202;SDS011;10759;51.982;9.232;2023-08-24T11:01:56;6.07;;;5.68;;
21202;SDS011;10759;51.982;9.232;2023-08-24T11:04:24;7.03;;;6.45;;
21202;SDS011;10759;51.982;9.232;2023-08-24T11:06:53;6.45;;;5.85;;
21202;SDS011;10759;51.982;9.232;2023-08-24T11:11:59;5.93;;;5.47;;
21202;SDS011;10759;51.982;9.232;2023-08-24T11:14:28;5.68;;;5.15;;
21202;SDS011;10759;51.982;9.232;2023-08-24T11:16:58;5.70;;;5.25;;
21202;SDS011;10759;51.982;9.232;2023-08-24T11:19:29;9.40;;;5.93;;
21202;SDS011;10759;51.982;9.232;2023-08-24T11:21:57;9.48;;;6.20;;
21202;SDS011;10759;51.982;9.232;2023-08-24T11:24:26;9.35;;;5.75;;
21202;SDS011;10759;51.982;9.232;2023-08-24T11:26:55;6.13;;;5.03;;
21202;SDS011;10759;51.982;9.232;2023-08-24T11:29:28;6.50;;;5.60;;
21202;SDS011;10759;51.982;9.232;2023-08-24T11:31:57;6.35;;;5.20;;
21202;SDS011;10759;51.982;9.232;2023-08-24T11:34:25;5.15;;;4.75;;
21202;SDS011;10759;51.982;9.232;2023-08-24T11:36:54;5.72;;;5.13;;
21202;SDS011;10759;51.982;9.232;2023-08-24T11:39:22;5.13;;;4.60;;
21202;SDS011;10759;51.982;9.232;2023-08-24T11:41:59;5.72;;;4.95;;
21202;SDS011;10759;51.982;9.232;2023-08-24T11:44:29;6.40;;;5.72;;
21202;SDS011;10759;51.982;9.232;2023-08-24T11:46:58;6.28;;;5.72;;
21202;SDS011;10759;51.982;9.232;2023-08-24T11:49:27;6.30;;;5.70;;
21202;SDS011;10759;51.982;9.232;2023-08-24T11:51:55;6.95;;;5.95;;
21202;SDS011;10759;51.982;9.232;2023-08-24T11:54:24;5.82;;;5.22;;
21202;SDS011;10759;51.982;9.232;2023-08-24T11:56:52;5.03;;;4.65;;
21202;SDS011;10759;51.982;9.232;2023-08-24T11:59:21;5.45;;;5.05;;
21202;SDS011;10759;51.982;9.232;2023-08-24T12:01:50;5.03;;;4.63;;
21202;SDS011;10759;51.982;9.232;2023-08-24T12:04:20;8.32;;;6.03;;
21202;SDS011;10759;51.982;9.232;2023-08-24T12:06:48;6.97;;;6.22;;
21202;SDS011;10759;51.982;9.232;2023-08-24T12:09:16;6.10;;;5.60;;
21202;SDS011;10759;51.982;9.232;2023-08-24T12:11:45;5.38;;;4.78;;
21202;SDS011;10759;51.982;9.232;2023-08-24T12:14:16;6.28;;;4.63;;
21202;SDS011;10759;51.982;9.232;2023-08-24T12:16:46;7.00;;;4.90;;
21202;SDS011;10759;51.982;9.232;2023-08-24T12:19:17;5.15;;;4.65;;
21202;SDS011;10759;51.982;9.232;2023-08-24T12:21:50;4.88;;;4.30;;
21202;SDS011;10759;51.982;9.232;2023-08-24T12:24:18;5.75;;;5.25;;
21202;SDS011;10759;51.982;9.232;2023-08-24T12:26:54;5.63;;;5.05;;
21202;SDS011;10759;51.982;9.232;2023-08-24T12:29:23;4.95;;;4.47;;
21202;SDS011;10759;51.982;9.232;2023-08-24T12:31:52;4.60;;;4.20;;
21202;SDS011;10759;51.982;9.232;2023-08-24T12:34:26;5.38;;;4.53;;
21202;SDS011;10759;51.982;9.232;2023-08-24T12:39:22;5.63;;;4.45;;
21202;SDS011;10759;51.982;9.232;2023-08-24T12:41:50;5.28;;;4.32;;
21202;SDS011;10759;51.982;9.232;2023-08-24T12:44:19;4.95;;;4.55;;
21202;SDS011;10759;51.982;9.232;2023-08-24T12:46:47;4.80;;;4.40;;
21202;SDS011;10759;51.982;9.232;2023-08-24T12:49:15;5.20;;;4.50;;
21202;SDS011;10759;51.982;9.232;2023-08-24T12:51:45;6.30;;;4.35;;
21202;SDS011;10759;51.982;9.232;2023-08-24T12:54:14;5.28;;;4.18;;
21202;SDS011;10759;51.982;9.232;2023-08-24T12:56:42;5.10;;;4.60;;
21202;SDS011;10759;51.982;9.232;2023-08-24T12:59:10;5.90;;;4.25;;
21202;SDS011;10759;51.982;9.232;2023-08-24T13:01:38;5.40;;;4.45;;
21202;SDS011;10759;51.982;9.232;2023-08-24T13:04:06;4.47;;;4.07;;
21202;SDS011;10759;51.982;9.232;2023-08-24T13:06:35;5.60;;;4.45;;
21202;SDS011;10759;51.982;9.232;2023-08-24T13:09:04;4.28;;;3.70;;
21202;SDS011;10759;51.982;9.232;2023-08-24T13:11:32;5.65;;;4.82;;
21202;SDS011;10759;51.982;9.232;2023-08-24T13:14:00;5.90;;;4.65;;
21202;SDS011;10759;51.982;9.232;2023-08-24T13:16:28;5.93;;;4.75;;
21202;SDS011;10759;51.982;9.232;2023-08-24T13:18:56;6.32;;;4.40;;
21202;SDS011;10759;51.982;9.232;2023-08-24T13:21:24;5.78;;;4.90;;
21202;SDS011;10759;51.982;9.232;2023-08-24T13:23:53;7.82;;;4.95;;
21202;SDS011;10759;51.982;9.232;2023-08-24T13:26:22;5.65;;;4.50;;
21202;SDS011;10759;51.982;9.232;2023-08-24T13:28:51;4.53;;;4.13;;
21202;SDS011;10759;51.982;9.232;2023-08-24T13:31:19;5.25;;;4.32;;
21202;SDS011;10759;51.982;9.232;2023-08-24T13:33:47;5.68;;;4.07;;
21202;SDS011;10759;51.982;9.232;2023-08-24T13:36:15;5.40;;;4.25;;
21202;SDS011;10759;51.982;9.232;2023-08-24T13:38:43;7.47;;;4.55;;
21202;SDS011;10759;51.982;9.232;2023-08-24T13:41:12;5.45;;;4.75;;
21202;SDS011;10759;51.982;9.232;2023-08-24T13:43:42;7.10;;;5.05;;
21202;SDS011;10759;51.982;9.232;2023-08-24T13:46:10;5.18;;;4.68;;
21202;SDS011;10759;51.982;9.232;2023-08-24T13:48:38;6.10;;;4.55;;
21202;SDS011;10759;51.982;9.232;2023-08-24T13:51:07;5.05;;;4.60;;
21202;SDS011;10759;51.982;9.232;2023-08-24T13:53:36;7.82;;;4.55;;
21202;SDS011;10759;51.982;9.232;2023-08-24T13:56:04;6.10;;;4.97;;
21202;SDS011;10759;51.982;9.232;2023-08-24T13:58:33;4.45;;;4.05;;
21202;SDS011;10759;51.982;9.232;2023-08-24T14:01:03;5.53;;;4.43;;
21202;SDS011;10759;51.982;9.232;2023-08-24T14:03:31;5.30;;;4.63;;
21202;SDS011;10759;51.982;9.232;2023-08-24T14:06:00;7.23;;;4.27;;
21202;SDS011;10759;51.982;9.232;2023-08-24T14:08:29;5.68;;;4.43;;
21202;SDS011;10759;51.982;9.232;2023-08-24T14:10:57;6.43;;;4.47;;
21202;SDS011;10759;51.982;9.232;2023-08-24T14:13:25;5.70;;;5.15;;
21202;SDS011;10759;51.982;9.232;2023-08-24T14:15:54;4.88;;;4.03;;
21202;SDS011;10759;51.982;9.232;2023-08-24T14:18:24;5.65;;;4.68;;
21202;SDS011;10759;51.982;9.232;2023-08-24T14:20:54;5.65;;;4.97;;
21202;SDS011;10759;51.982;9.232;2023-08-24T14:23:22;7.50;;;4.90;;
21202;SDS011;10759;51.982;9.232;2023-08-24T14:25:50;5.13;;;4.63;;
21202;SDS011;10759;51.982;9.232;2023-08-24T14:28:19;6.55;;;5.28;;
21202;SDS011;10759;51.982;9.232;2023-08-24T14:30:49;6.35;;;4.88;;
21202;SDS011;10759;51.982;9.232;2023-08-24T14:33:17;5.55;;;4.93;;
21202;SDS011;10759;51.982;9.232;2023-08-24T14:35:53;5.75;;;4.75;;
21202;SDS011;10759;51.982;9.232;2023-08-24T14:38:21;5.15;;;4.65;;
21202;SDS011;10759;51.982;9.232;2023-08-24T14:40:49;5.38;;;4.97;;
21202;SDS011;10759;51.982;9.232;2023-08-24T14:43:17;7.72;;;5.32;;
21202;SDS011;10759;51.982;9.232;2023-08-24T14:45:45;6.63;;;5.00;;
21202;SDS011;10759;51.982;9.232;2023-08-24T14:48:14;5.55;;;5.05;;
21202;SDS011;10759;51.982;9.232;2023-08-24T14:50:43;7.65;;;5.30;;
21202;SDS011;10759;51.982;9.232;2023-08-24T14:53:12;5.47;;;4.97;;
21202;SDS011;10759;51.982;9.232;2023-08-24T14:55:41;6.38;;;5.50;;
21202;SDS011;10759;51.982;9.232;2023-08-24T14:58:09;6.03;;;5.47;;
21202;SDS011;10759;51.982;9.232;2023-08-24T15:00:37;6.00;;;5.40;;
21202;SDS011;10759;51.982;9.232;2023-08-24T15:03:06;7.60;;;5.35;;